Timeline UpdatesTrip UpdatesNews PostsPvt Posts♥♥Travel TipsAdmin PostsConv PostsFollowed PostsChat RequestsBlog PostsPNR Posts

Disclaimer
Search
 
 
Fri Oct 31, 2014 11:06:16 ISTHomeTrainsΣChainsAtlasPNRForumGalleryNewsFAQTripsMembersLoginFeedback
No Recent News for this Train
Other Trains in the News **new
Latest...
Train leaving Muzaffarpur on 20/9/14 is diverted via Dankuni and will stop at Dakshineswar on 21/9/14 #1218323.
Thu Sep 18, 2014 (11:11PM)
⇐ Return Journey: Train# 53131

53132/Muzaffarpur Sealdah Passenger (UnReserved)

Time-Table HAS CHANGED.
Sep 18 2014 (11:11PM)
Change Departure Station:
Change Arrival Station:
Post a Train Travel TipPost a Train Travel Tip **new
Post a Comment/Question/Picture/VideoPost a Comment/Question/Picture/Video
Pantry/Catering
✕ NO Pantry Car
✕ NO Catering
RSA - Rake Sharing
Rake/Coach Composition
ENG-SLR-GEN-GEN-GEN-GEN-GEN-GEN-GEN-SLR
Loco
WDM-2/WDM-3A from MFP to BJU, then, ASN WAM-4/WAG-5A/WAG-5HA from BJU...
Read more...
to SDAH
News    PNR    Forum    Time-Table    Availability    Fare Chart    Map    Arr/Dep History    Trips    Gallery    ΣChains    X/O    Timeline    
Travel Time: 5h 10m    16 halts    Distance: 213 km    Avg Speed: 41 km/hr
Type: Passenger
Zone: ER/Eastern
Departs @ 21:30 (Avg 1h 24m late)
Platform# ???
SMTWTFS
Asansol Junction/ASN 
Arrives @ 02:40 +1 night (Avg 1h 22m late)
Platform# ???
SMTWTFS
Dum Dum Junction/DDJ 

16 halts. 53 intermediate Stations between Asansol Junction and Dum Dum Junction

Show ALL intermediate Stations  Show Old Time-Table

#TrkCodeStation NameX/OArrivesAvgDepartsAvgHaltPFDay#KmSpeedElevZoneAddress
1/==/MFPMuzaffarpur Junction (6)  -07:45 07:40+11--1-356.52957mECRMuzaffarpur, Bihar
2/==/NRPANarayanpur Anant (3)X  07:54 07:50+2107:55 07:52+211 2m--1-351.74356mECRMuzaffarpur, Bihar
3/==/SLTSilaut (2)  08:03 08:00+2308:04 08:02+241 2m--1-346.05857mECRMuzaffarpur, Bihar
4/==/SIHOSiho (2)  08:12 08:10+2408:13 08:12+261 2m--1-338.25153mECRNational Highway 28, Bihar
5/==/DOLDholi (2)X  08:21 08:20+2508:22+261 2m--1-331.445 ECRDistt. Muzaffarpur, Bihar
6/==/DUBHDubaha (2)X  08:31 08:30+2808:32+311 2m--1-325.34055mECRDubha Station, Bihar
7/==/KRBPKhudiram B Pusa (2)  08:41 08:43+3208:42 08:45+351 2m--1-318.04452mECRDistt. Samastipur, Bihar
8/==/KPGMKarpurigram (3)X  08:51 08:55+3908:52 08:57+461 2m--1-310.62951mECRState Highway 49, Bihar
9/==/SPJSamastipur Junction (9)X  09:10+4909:20+4710m--1-304.44955mECRSamastipur, Bihar
10/==/UJPUjiarpur (2)X  09:31+1:0109:32+1:031m--1-295.34751mECRSamastipur, Bihar
11/==/NAZJNazirGanj (2)  09:40+1:0609:41+1:111m--1-289.04751mECRNazirGanj, Bihar
12/==/DSSDalsingh Sarai (2)X  09:51+1:1309:52+1:201m21-281.227 ECR06278-221238, Bihar
13/==/STJTSathajagat (2)X  10:02+1:2510:03+1:341m--1-276.62449mECRSathajagat, Bihar
14/==/BCABachwara Junction (3)X  10:19+1:3610:20 10:25+1:491 6m--1-270.23149mECRBegusarai, Bihar
15/--/TGATeghra (3)X  10:42+1:4610:43+1:531m--1-261.31048mECRBegusarai, Bihar
16/==/BJUBarauni Junction (9)11:25+1:2811:50+1:4825m--1-253.92449mECRBegusarai, Bihar
17/--/DKGSDinkar Gram Simaria (3) new halt!!  12:05+1:5512:07+2:012m--1-247.92547mECRSimaria Station, Bihar
18/--/RJORajendra Pul (1)  12:14+2:2312:15+2:331m11-245.02849mECRSimaria, Bihar
19/--/HTZUHathidah Upper (1)O  12:22+2:3612:24+2:312m11-241.71451mECRMurarpur, Bihar
20/==/RDUMRampur Dumra (3)  13:14+2:0113:15+2:071m--1-229.93746mECRNational Highway 80, Bihar
21/==/BRYABarhiya (3)  13:24+1:3913:25+1:411m--1-224.32047mECRBarahiya, Bihar
22/==/MKBMankathaX  13:53+1:5813:55+2:062m--1-214.93347mECRNational Highway 80, Bihar
23/==/LKRLuckeesarai Junction (2)X  14:05+1:5414:07+1:552m--1-209.3652mECRLakhisarai, Bihar
24/==/KIULKiul Junction (5)X  14:20+1:4014:30+1:3910m--1-207.93353mECRDist. Lakhisarai, Bihar
25/==/BSQPBansipur (2)  14:38+2:0114:40+2:012m--1-203.51753mECRKiul, Bihar
26/==/MNPMananpur (2)  14:49+2:0514:50+2:121m--1-201.05457mECRState Highway 18, Bihar
27/==/BFMBhalui (2)  14:57+2:1414:58+2:151m--1-194.87763mECRState Highway 18, Bihar
28/==/JMUJamui (2)  15:09+2:1415:10+2:161m--1-180.64881mECRState Highway 72, Bihar
29/==/CUXChaura (2)X  15:20+2:2715:21+2:291m--1-172.64490mECRState Highway 18, Bihar
30/==/GHRGidhaur (2)  15:30+2:2715:31+2:291m--1-166.137106mECRState Highway 18, Bihar
31/==/DPXDadpur (2)X  15:38+2:2815:39+2:301m--1-161.820116mECRDadpur, Bihar
32/==/JAJJhajha (4)  16:00+1:5216:10+2:0010m--1-154.644143mECRJhajha, Bihar
33/==/NRGONarganjo Halt (2)X  16:21+2:3516:22+2:351m--1-146.629188mERState Highway 18, Bihar
34/==/STLSimultala (2)X  16:44+1:5816:45+2:001m--1-135.947247mERSimultala, Bihar
35/==/LHBLahabon (3)X  16:58+2:2816:59+2:281m--1-125.846259mERDeoghar, Jharkhand
36/==/JSMEJasidih Junction (5)X  17:19+1:4517:22+1:473m--1-110.555271mERJasidih, Jharkhand
37/==/KBQKumrabad Rohini (2)X  17:29-17:30-1m--1-104.173231mERKumrabad Rohi, Jharkhand
38/==/SNQSankarpur (2)X  17:34+2:4217:35+2:421m--1-99.341242mERDeoghar, Jharkhand
39/==/MUWMathurapur (2)  17:44+2:5417:45+2:541m--1-93.144261mERDeoghar, Jharkhand
40/==/MDPMadhupur Junction (4)XO  18:01+1:3018:58+1:1357m--1-81.559254mER06432-224478, Jharkhand
41/==/JRWJoramow  19:08+2:0219:09+2:021m--1-71.646208mERBarrage on Ajoy River, Jharkhand
42/==/MNCMadankata (2)X  19:16+2:0019:17+2:011m--1-66.244208mERBarrage on Ajoy River, Jharkhand
43/==/VDSVidyasagar (2)X  19:29+1:5219:30+1:531m--1-57.363250mERJamtara, Jharkhand
44/==/JMTJamtara (2)  19:47+1:4119:48+1:431m21-39.445201mERJamtara, Jharkhand
45/==/CRJChittaranjan (3)X  20:07+2:0020:10+2:023m21-25.146182mERMihijam, Jharkhand
46/==/RNPRRupnarayanpur (3)X  20:16+1:4420:17+1:441m--1-20.553191mERChittaranjan, West Bengal
47/==/SLSSalanpur (2)X  20:25+2:0420:26+2:061m--1-13.410156mERSalanpur Station, West Bengal
48/==/STNSitarampur Junction (5)X  20:58 20:53+1:3821:00 20:55+1:502m--1-8.832139mERG T Rd Before Asansol, West Bengal
49/==/BCQBarachak Junction (4)X  21:06 21:02+2:0121:07 21:03+2:011m--1-5.144127mERdist - bardhaman, West Bengal
50/==/ASNAsansol Junction (7)»X  21:15 21:10+1:2521:35 21:30+1:2420m--10.064113mERDist - Bardhaman, West Bengal
51/==/RNGRaniGanj (4)XO  21:52 21:47+1:3421:56 21:51+1:404m--118.11192mERRaniganj, West Bengal
52/==/UDLAndal Junction (6)  22:30+1:3522:33+1:343m--125.46286mERAndal, West Bengal
53/==/OYRWaria (4)X  22:41+2:0222:42+2:031m--133.641 ERDurgapur, West Bengal
54/==/DGRDurgapur (5)X  22:55+1:3423:00+1:345m--142.55571mERDurgapur, West Bengal
55/==/PANPanagarh (4)  23:17+2:0123:18+2:021m--158.06570mERKaksa, West Bengal
56/==/KANKhana Junction (5)X  23:50+1:5223:51+1:531m--192.96542mERDist - Bardhaman, West Bengal
57/==/BWNBarddhaman Junction (8)X  00:03+1:4400:08+1:475m--2106.07034mERDist - Barddhaman, West Bengal
58/==/BDCBandel Junction (7)  01:06+2:2201:11+2:215m--2173.23314mERdist - HOOGHLY, West Bengal
59/=-/HYGHooghly Ghat (2)  01:18+2:2001:19+2:201m--2177.01417mERdist - Hooghly, West Bengal
60/-=/GFAEGarifa (2)  01:25-01:26-1m--2178.51915mERState Highway 1, West Bengal
61/==/NHNaihati Junction (5)  01:36+2:0301:44+2:058m--2181.63415mERdist - North 24 paraganas - 743165, West Bengal
62/==/KNRKankinara (3)  01:49+3:0601:51+5:022m--2184.457 ERState Highway 1, West Bengal
63/==/SNRShyamnagar (4)  01:56+1:1901:57+1:191m--2189.24916mERDist - North 24 paraganas, West Bengal
64/==/IPIchhapur (4)  02:01+1:4302:02+1:431m--2192.54412mERIchapur, West Bengal
65/==/BPBarrackpore (5)  02:08+2:3102:16+2:508m22196.93212mERDist - 24 paraganas (N), West Bengal
66/==/TGHTitagarh (4)  02:20-02:22-2m42199.04510mERDist - 24 paraganas ( north ), West Bengal
67/==/DDJDum Dum Junction (5)•  02:40+1:2202:41+1:221m--2212.6910mERKolkata - 700028, West Bengal
68/==/SDAHKolkata Sealdah (20)  03:25+1:23-72219.2-8mERPh : 033-23503535 (For North: APC Roy Road) Kolkata 700014, West Bengal
Scroll to Top
Scroll to Bottom